Terminal Aerodrome Forecast
Issued by NWS Cleveland, OH

Home | Current Version | Previous Version | Graphics & Text | Print | Product List | Glossary On
Versions: 1 2 3 4 5 6 7 8 9 10 11 12 13 14 15 16 17 18 19 20 21 22 23 24 25 26 27
000
FTUS41 KCLE 220533
TAFCLE
TAF
KCLE 220533Z 2206/2312 18002KT P6SM OVC100
     FM221000 20005KT 5SM BR OVC035
     FM221200 20005KT 3SM BR OVC012
      TEMPO 2212/2215 OVC008
     FM221800 20008KT P6SM OVC015
     FM222100 20008KT P6SM OVC045
     FM230200 20008KT 6SM BR OVC025
     FM230800 20010KT 5SM BR OVC015=

USA.gov is the U.S. government's official web portal to all federal, state and local government web resources and services.